Portada
METAR-TAF:

METAR-TAF

Aeroports :

Aeroport Internacional Atatürk

Istanbul Atatürk, Turquia

latitud: 40-58N, longitud: 028-49E, altitud: 48 m

Observació

L'informe es va fer fa 29 minuts, a les 00:20 UTC
Vent 12 kt del Sud/Sud-Oest
Temperatura 10°C
Humitat 87%
Pressió 1011 hPa
Visibilitat 10 km o més
sense núvols per sota de 1500 mi sense presència de cumulonimbus.

METAR: LTBA 300020Z 21012KT CAVOK 10/08 Q1011 NOSIG RMK RWY17L 21009KT RWY05 23011KT RWY23 22011KT

Hora: 03:49 (00:49 UTC)

Pronòstic

L'informe es va fer fa 2 hores i 9 minuts, a les 22:40 UTC
Pronòstic vàlid del 30 a les 00 UTC al 31 a les 06 UTC
Vent 2 kt amb direcció variable
Visibilitat 10 km o més
sense núvols per sota de 1500 mi sense presència de cumulonimbus.
Temporalment
l' 30 a les 10 UTC al 30 a les 12 UTC
Vent 16 kt del Oest/Sud-Oest

TAF: LTBA 292240Z 3000/3106 VRB02KT CAVOK TEMPO 3010/3012 24016KT

Observacions i pronòstics meteorològics de més de 4000 aeroports (METAR i TAF).

Les estacions disponibles són els punts grocs i vermells al mapa.

Posi el ratolí al punt desitjat per veure el nom de l'estació.

Feu clic per veure les observacions i els pronòstics meteorològics.

Per canviar el mapa: feu clic els botons verds amb una creu de color negre per apropar; al botó verd amb un guió per allunyar la imatge; o en les fletxes verdes per a mapes adjacents.


METAR-TAF: